sensor_id;sensor_type;location;lat;lon;timestamp;P1;durP1;ratioP1;P2;durP2;ratioP2
66609;SDS011;53468;48.276;14.416;2023-02-11T00:03:52;35.78;;;17.55;;
66609;SDS011;53468;48.276;14.416;2023-02-11T00:08:56;34.83;;;17.35;;
66609;SDS011;53468;48.276;14.416;2023-02-11T00:14:00;40.75;;;18.15;;
66609;SDS011;53468;48.276;14.416;2023-02-11T00:19:03;36.97;;;15.18;;
66609;SDS011;53468;48.276;14.416;2023-02-11T00:24:07;40.17;;;19.95;;
66609;SDS011;53468;48.276;14.416;2023-02-11T00:29:09;35.35;;;19.05;;
66609;SDS011;53468;48.276;14.416;2023-02-11T00:34:11;38.58;;;18.20;;
66609;SDS011;53468;48.276;14.416;2023-02-11T00:39:15;46.83;;;19.90;;
66609;SDS011;53468;48.276;14.416;2023-02-11T00:44:17;39.45;;;20.55;;
66609;SDS011;53468;48.276;14.416;2023-02-11T00:49:19;41.78;;;20.83;;
66609;SDS011;53468;48.276;14.416;2023-02-11T00:54:22;42.42;;;20.02;;
66609;SDS011;53468;48.276;14.416;2023-02-11T00:59:24;41.47;;;20.60;;
66609;SDS011;53468;48.276;14.416;2023-02-11T01:04:26;45.17;;;21.08;;
66609;SDS011;53468;48.276;14.416;2023-02-11T01:09:30;36.03;;;18.02;;
66609;SDS011;53468;48.276;14.416;2023-02-11T01:14:32;34.70;;;19.23;;
66609;SDS011;53468;48.276;14.416;2023-02-11T01:19:35;36.03;;;18.75;;
66609;SDS011;53468;48.276;14.416;2023-02-11T01:24:39;41.00;;;20.48;;
66609;SDS011;53468;48.276;14.416;2023-02-11T01:29:41;39.55;;;19.02;;
66609;SDS011;53468;48.276;14.416;2023-02-11T01:34:43;44.05;;;20.17;;
66609;SDS011;53468;48.276;14.416;2023-02-11T01:39:46;40.65;;;18.75;;
66609;SDS011;53468;48.276;14.416;2023-02-11T01:44:48;41.35;;;18.45;;
66609;SDS011;53468;48.276;14.416;2023-02-11T01:49:52;44.15;;;19.25;;
66609;SDS011;53468;48.276;14.416;2023-02-11T01:54:59;40.78;;;17.55;;
66609;SDS011;53468;48.276;14.416;2023-02-11T02:00:23;36.05;;;19.23;;
66609;SDS011;53468;48.276;14.416;2023-02-11T02:05:28;44.78;;;22.10;;
66609;SDS011;53468;48.276;14.416;2023-02-11T02:10:37;37.13;;;19.60;;
66609;SDS011;53468;48.276;14.416;2023-02-11T02:15:43;47.00;;;20.40;;
66609;SDS011;53468;48.276;14.416;2023-02-11T02:21:05;50.55;;;23.25;;
66609;SDS011;53468;48.276;14.416;2023-02-11T02:27:01;42.30;;;20.23;;
66609;SDS011;53468;48.276;14.416;2023-02-11T02:32:30;39.88;;;19.73;;
66609;SDS011;53468;48.276;14.416;2023-02-11T02:37:53;43.22;;;21.10;;
66609;SDS011;53468;48.276;14.416;2023-02-11T02:42:57;44.33;;;23.00;;
66609;SDS011;53468;48.276;14.416;2023-02-11T02:48:03;46.60;;;21.20;;
66609;SDS011;53468;48.276;14.416;2023-02-11T02:53:11;43.80;;;21.42;;
66609;SDS011;53468;48.276;14.416;2023-02-11T02:58:26;44.55;;;23.90;;
66609;SDS011;53468;48.276;14.416;2023-02-11T03:03:52;48.72;;;23.65;;
66609;SDS011;53468;48.276;14.416;2023-02-11T03:09:03;54.30;;;24.98;;
66609;SDS011;53468;48.276;14.416;2023-02-11T03:14:09;48.83;;;23.88;;
66609;SDS011;53468;48.276;14.416;2023-02-11T03:19:16;48.13;;;23.48;;
66609;SDS011;53468;48.276;14.416;2023-02-11T03:24:23;46.83;;;23.65;;
66609;SDS011;53468;48.276;14.416;2023-02-11T03:29:30;49.45;;;23.17;;
66609;SDS011;53468;48.276;14.416;2023-02-11T03:34:41;49.80;;;23.40;;
66609;SDS011;53468;48.276;14.416;2023-02-11T03:39:50;56.40;;;25.25;;
66609;SDS011;53468;48.276;14.416;2023-02-11T03:44:57;58.55;;;26.02;;
66609;SDS011;53468;48.276;14.416;2023-02-11T03:50:06;48.33;;;22.70;;
66609;SDS011;53468;48.276;14.416;2023-02-11T03:55:14;61.35;;;24.23;;
66609;SDS011;53468;48.276;14.416;2023-02-11T04:00:18;48.17;;;22.73;;
66609;SDS011;53468;48.276;14.416;2023-02-11T04:05:22;47.58;;;23.50;;
66609;SDS011;53468;48.276;14.416;2023-02-11T04:10:24;42.83;;;21.50;;
66609;SDS011;53468;48.276;14.416;2023-02-11T04:15:26;48.83;;;22.83;;
66609;SDS011;53468;48.276;14.416;2023-02-11T04:20:29;57.40;;;24.23;;
66609;SDS011;53468;48.276;14.416;2023-02-11T04:25:31;49.15;;;21.45;;
66609;SDS011;53468;48.276;14.416;2023-02-11T04:30:33;47.85;;;22.98;;
66609;SDS011;53468;48.276;14.416;2023-02-11T04:35:36;46.15;;;24.23;;
66609;SDS011;53468;48.276;14.416;2023-02-11T04:40:38;49.53;;;23.02;;
66609;SDS011;53468;48.276;14.416;2023-02-11T04:45:41;49.88;;;23.52;;
66609;SDS011;53468;48.276;14.416;2023-02-11T04:50:44;49.10;;;23.85;;
66609;SDS011;53468;48.276;14.416;2023-02-11T04:55:47;44.60;;;22.05;;
66609;SDS011;53468;48.276;14.416;2023-02-11T05:00:49;44.65;;;21.55;;
66609;SDS011;53468;48.276;14.416;2023-02-11T05:05:53;50.42;;;23.00;;
66609;SDS011;53468;48.276;14.416;2023-02-11T05:10:56;52.33;;;22.42;;
66609;SDS011;53468;48.276;14.416;2023-02-11T05:16:01;43.05;;;22.83;;
66609;SDS011;53468;48.276;14.416;2023-02-11T05:21:06;47.38;;;23.05;;
66609;SDS011;53468;48.276;14.416;2023-02-11T05:26:08;46.30;;;20.83;;
66609;SDS011;53468;48.276;14.416;2023-02-11T05:31:10;49.45;;;23.83;;
66609;SDS011;53468;48.276;14.416;2023-02-11T05:36:15;39.97;;;20.05;;
66609;SDS011;53468;48.276;14.416;2023-02-11T05:41:17;47.72;;;21.83;;
66609;SDS011;53468;48.276;14.416;2023-02-11T05:46:19;53.47;;;24.13;;
66609;SDS011;53468;48.276;14.416;2023-02-11T05:51:22;41.03;;;23.23;;
66609;SDS011;53468;48.276;14.416;2023-02-11T05:56:25;51.90;;;24.05;;
66609;SDS011;53468;48.276;14.416;2023-02-11T06:01:27;46.88;;;22.98;;
66609;SDS011;53468;48.276;14.416;2023-02-11T06:06:30;47.88;;;22.73;;
66609;SDS011;53468;48.276;14.416;2023-02-11T06:11:34;52.95;;;24.67;;
66609;SDS011;53468;48.276;14.416;2023-02-11T06:16:36;58.40;;;24.40;;
66609;SDS011;53468;48.276;14.416;2023-02-11T06:21:39;50.05;;;23.75;;
66609;SDS011;53468;48.276;14.416;2023-02-11T06:26:41;54.17;;;24.40;;
66609;SDS011;53468;48.276;14.416;2023-02-11T06:31:43;50.08;;;23.52;;
66609;SDS011;53468;48.276;14.416;2023-02-11T06:36:47;48.10;;;24.05;;
66609;SDS011;53468;48.276;14.416;2023-02-11T06:41:49;42.45;;;22.23;;
66609;SDS011;53468;48.276;14.416;2023-02-11T06:46:51;51.80;;;25.90;;
66609;SDS011;53468;48.276;14.416;2023-02-11T06:51:55;48.92;;;23.65;;
66609;SDS011;53468;48.276;14.416;2023-02-11T06:56:57;49.72;;;24.45;;
66609;SDS011;53468;48.276;14.416;2023-02-11T07:01:59;47.15;;;23.05;;
66609;SDS011;53468;48.276;14.416;2023-02-11T07:07:02;46.65;;;23.13;;
66609;SDS011;53468;48.276;14.416;2023-02-11T07:12:05;48.10;;;23.70;;
66609;SDS011;53468;48.276;14.416;2023-02-11T07:17:09;44.13;;;21.52;;
66609;SDS011;53468;48.276;14.416;2023-02-11T07:22:13;47.72;;;21.98;;
66609;SDS011;53468;48.276;14.416;2023-02-11T07:27:15;33.88;;;19.80;;
66609;SDS011;53468;48.276;14.416;2023-02-11T07:32:17;38.38;;;19.55;;
66609;SDS011;53468;48.276;14.416;2023-02-11T07:37:21;44.17;;;20.27;;
66609;SDS011;53468;48.276;14.416;2023-02-11T07:42:23;36.95;;;20.00;;
66609;SDS011;53468;48.276;14.416;2023-02-11T07:47:25;38.72;;;20.00;;
66609;SDS011;53468;48.276;14.416;2023-02-11T07:52:29;42.38;;;21.98;;
66609;SDS011;53468;48.276;14.416;2023-02-11T07:57:31;37.95;;;17.80;;
66609;SDS011;53468;48.276;14.416;2023-02-11T08:02:33;38.33;;;20.63;;
66609;SDS011;53468;48.276;14.416;2023-02-11T08:07:36;31.60;;;18.38;;
66609;SDS011;53468;48.276;14.416;2023-02-11T08:12:39;36.53;;;18.30;;
66609;SDS011;53468;48.276;14.416;2023-02-11T08:17:41;37.95;;;20.63;;
66609;SDS011;53468;48.276;14.416;2023-02-11T08:22:44;50.70;;;23.17;;
66609;SDS011;53468;48.276;14.416;2023-02-11T08:27:46;39.85;;;18.75;;
66609;SDS011;53468;48.276;14.416;2023-02-11T08:32:48;36.88;;;19.20;;
66609;SDS011;53468;48.276;14.416;2023-02-11T08:37:52;34.08;;;19.05;;
66609;SDS011;53468;48.276;14.416;2023-02-11T08:42:54;37.45;;;20.08;;
66609;SDS011;53468;48.276;14.416;2023-02-11T08:47:56;43.85;;;20.92;;
66609;SDS011;53468;48.276;14.416;2023-02-11T08:53:00;42.60;;;20.58;;
66609;SDS011;53468;48.276;14.416;2023-02-11T08:58:02;36.58;;;19.55;;
66609;SDS011;53468;48.276;14.416;2023-02-11T09:03:04;37.15;;;19.27;;
66609;SDS011;53468;48.276;14.416;2023-02-11T09:08:07;33.88;;;18.10;;
66609;SDS011;53468;48.276;14.416;2023-02-11T09:13:10;35.25;;;20.45;;
66609;SDS011;53468;48.276;14.416;2023-02-11T09:18:12;32.38;;;18.33;;
66609;SDS011;53468;48.276;14.416;2023-02-11T09:23:16;38.03;;;18.40;;
66609;SDS011;53468;48.276;14.416;2023-02-11T09:28:19;37.00;;;18.35;;
66609;SDS011;53468;48.276;14.416;2023-02-11T09:33:21;36.92;;;18.17;;
66609;SDS011;53468;48.276;14.416;2023-02-11T09:38:24;40.03;;;19.42;;
66609;SDS011;53468;48.276;14.416;2023-02-11T09:43:30;42.78;;;21.15;;
66609;SDS011;53468;48.276;14.416;2023-02-11T09:48:36;36.55;;;19.33;;
66609;SDS011;53468;48.276;14.416;2023-02-11T09:53:43;36.83;;;18.02;;
66609;SDS011;53468;48.276;14.416;2023-02-11T09:58:45;35.80;;;17.77;;
66609;SDS011;53468;48.276;14.416;2023-02-11T10:03:53;33.58;;;17.35;;
66609;SDS011;53468;48.276;14.416;2023-02-11T10:09:05;32.72;;;18.17;;
66609;SDS011;53468;48.276;14.416;2023-02-11T10:14:28;29.33;;;16.45;;
66609;SDS011;53468;48.276;14.416;2023-02-11T10:19:53;33.53;;;17.52;;
66609;SDS011;53468;48.276;14.416;2023-02-11T10:25:10;31.80;;;15.70;;
66609;SDS011;53468;48.276;14.416;2023-02-11T10:30:22;31.67;;;16.13;;
66609;SDS011;53468;48.276;14.416;2023-02-11T10:35:29;34.63;;;17.13;;
66609;SDS011;53468;48.276;14.416;2023-02-11T10:40:34;29.27;;;15.35;;
66609;SDS011;53468;48.276;14.416;2023-02-11T10:45:38;28.40;;;16.08;;
66609;SDS011;53468;48.276;14.416;2023-02-11T10:50:43;30.27;;;15.38;;
66609;SDS011;53468;48.276;14.416;2023-02-11T10:55:51;31.10;;;15.52;;
66609;SDS011;53468;48.276;14.416;2023-02-11T11:00:56;29.42;;;15.50;;
66609;SDS011;53468;48.276;14.416;2023-02-11T11:06:01;26.83;;;15.13;;
66609;SDS011;53468;48.276;14.416;2023-02-11T11:11:08;28.33;;;16.50;;
66609;SDS011;53468;48.276;14.416;2023-02-11T11:16:15;28.13;;;15.18;;
66609;SDS011;53468;48.276;14.416;2023-02-11T11:21:20;34.35;;;16.33;;
66609;SDS011;53468;48.276;14.416;2023-02-11T11:26:26;29.30;;;16.38;;
66609;SDS011;53468;48.276;14.416;2023-02-11T11:31:30;27.77;;;16.33;;
66609;SDS011;53468;48.276;14.416;2023-02-11T11:36:37;30.90;;;16.98;;
66609;SDS011;53468;48.276;14.416;2023-02-11T11:41:49;25.92;;;14.60;;
66609;SDS011;53468;48.276;14.416;2023-02-11T11:47:03;25.77;;;13.23;;
66609;SDS011;53468;48.276;14.416;2023-02-11T11:52:17;29.10;;;14.88;;
66609;SDS011;53468;48.276;14.416;2023-02-11T11:57:27;25.75;;;13.93;;
66609;SDS011;53468;48.276;14.416;2023-02-11T12:02:44;24.10;;;13.18;;
66609;SDS011;53468;48.276;14.416;2023-02-11T12:08:02;23.45;;;13.52;;
66609;SDS011;53468;48.276;14.416;2023-02-11T12:13:25;24.60;;;12.43;;
66609;SDS011;53468;48.276;14.416;2023-02-11T12:18:40;26.25;;;13.85;;
66609;SDS011;53468;48.276;14.416;2023-02-11T12:23:57;25.25;;;12.75;;
66609;SDS011;53468;48.276;14.416;2023-02-11T12:29:14;18.58;;;11.32;;
66609;SDS011;53468;48.276;14.416;2023-02-11T12:34:28;22.48;;;11.85;;
66609;SDS011;53468;48.276;14.416;2023-02-11T12:39:54;22.67;;;11.55;;
66609;SDS011;53468;48.276;14.416;2023-02-11T12:45:12;20.05;;;11.45;;
66609;SDS011;53468;48.276;14.416;2023-02-11T12:50:33;25.70;;;13.98;;
66609;SDS011;53468;48.276;14.416;2023-02-11T12:55:43;23.77;;;12.60;;
66609;SDS011;53468;48.276;14.416;2023-02-11T13:00:51;24.58;;;12.65;;
66609;SDS011;53468;48.276;14.416;2023-02-11T13:05:57;28.25;;;14.07;;
66609;SDS011;53468;48.276;14.416;2023-02-11T13:11:04;35.33;;;14.45;;
66609;SDS011;53468;48.276;14.416;2023-02-11T13:16:18;26.70;;;13.45;;
66609;SDS011;53468;48.276;14.416;2023-02-11T13:21:41;27.92;;;14.25;;
66609;SDS011;53468;48.276;14.416;2023-02-11T13:26:52;24.13;;;12.90;;
66609;SDS011;53468;48.276;14.416;2023-02-11T13:32:06;30.17;;;13.97;;
66609;SDS011;53468;48.276;14.416;2023-02-11T13:37:11;24.27;;;12.95;;
66609;SDS011;53468;48.276;14.416;2023-02-11T13:42:21;26.15;;;14.05;;
66609;SDS011;53468;48.276;14.416;2023-02-11T13:47:26;24.88;;;12.90;;
66609;SDS011;53468;48.276;14.416;2023-02-11T13:52:31;26.08;;;13.63;;
66609;SDS011;53468;48.276;14.416;2023-02-11T13:57:38;24.05;;;14.00;;
66609;SDS011;53468;48.276;14.416;2023-02-11T14:02:42;25.63;;;13.70;;
66609;SDS011;53468;48.276;14.416;2023-02-11T14:08:10;17.77;;;11.27;;
66609;SDS011;53468;48.276;14.416;2023-02-11T14:19:33;26.38;;;12.25;;
66609;SDS011;53468;48.276;14.416;2023-02-11T14:24:47;26.83;;;13.88;;
66609;SDS011;53468;48.276;14.416;2023-02-11T14:35:40;21.65;;;12.98;;
66609;SDS011;53468;48.276;14.416;2023-02-11T14:40:53;27.75;;;14.30;;
66609;SDS011;53468;48.276;14.416;2023-02-11T14:46:02;22.02;;;12.60;;
66609;SDS011;53468;48.276;14.416;2023-02-11T14:51:07;26.73;;;14.18;;
66609;SDS011;53468;48.276;14.416;2023-02-11T14:56:18;29.77;;;14.23;;
66609;SDS011;53468;48.276;14.416;2023-02-11T15:01:23;24.97;;;13.30;;
66609;SDS011;53468;48.276;14.416;2023-02-11T15:06:30;25.17;;;13.48;;
66609;SDS011;53468;48.276;14.416;2023-02-11T15:11:37;28.67;;;14.65;;
66609;SDS011;53468;48.276;14.416;2023-02-11T15:16:41;25.98;;;13.57;;
66609;SDS011;53468;48.276;14.416;2023-02-11T15:21:47;23.80;;;13.30;;
66609;SDS011;53468;48.276;14.416;2023-02-11T15:26:58;26.27;;;14.00;;
66609;SDS011;53468;48.276;14.416;2023-02-11T15:32:02;26.70;;;14.17;;
66609;SDS011;53468;48.276;14.416;2023-02-11T15:37:09;30.40;;;14.45;;
66609;SDS011;53468;48.276;14.416;2023-02-11T15:42:14;31.58;;;16.30;;
66609;SDS011;53468;48.276;14.416;2023-02-11T15:47:21;32.00;;;14.05;;
66609;SDS011;53468;48.276;14.416;2023-02-11T15:52:25;28.58;;;14.52;;
66609;SDS011;53468;48.276;14.416;2023-02-11T15:57:28;24.35;;;14.25;;
66609;SDS011;53468;48.276;14.416;2023-02-11T16:02:31;30.85;;;14.20;;
66609;SDS011;53468;48.276;14.416;2023-02-11T16:07:38;32.67;;;13.55;;
66609;SDS011;53468;48.276;14.416;2023-02-11T16:12:44;32.83;;;14.88;;
66609;SDS011;53468;48.276;14.416;2023-02-11T16:17:51;29.95;;;14.40;;
66609;SDS011;53468;48.276;14.416;2023-02-11T16:22:55;28.10;;;14.05;;
66609;SDS011;53468;48.276;14.416;2023-02-11T16:27:57;27.85;;;13.43;;
66609;SDS011;53468;48.276;14.416;2023-02-11T16:33:00;23.80;;;13.35;;
66609;SDS011;53468;48.276;14.416;2023-02-11T16:38:03;28.80;;;14.48;;
66609;SDS011;53468;48.276;14.416;2023-02-11T16:43:05;27.40;;;14.23;;
66609;SDS011;53468;48.276;14.416;2023-02-11T16:48:08;28.85;;;15.13;;
66609;SDS011;53468;48.276;14.416;2023-02-11T16:53:16;29.08;;;14.23;;
66609;SDS011;53468;48.276;14.416;2023-02-11T16:58:21;33.88;;;16.80;;
66609;SDS011;53468;48.276;14.416;2023-02-11T17:03:24;26.38;;;14.80;;
66609;SDS011;53468;48.276;14.416;2023-02-11T17:08:29;30.20;;;15.90;;
66609;SDS011;53468;48.276;14.416;2023-02-11T17:13:31;30.27;;;14.65;;
66609;SDS011;53468;48.276;14.416;2023-02-11T17:18:33;35.55;;;16.30;;
66609;SDS011;53468;48.276;14.416;2023-02-11T17:23:37;25.42;;;13.63;;
66609;SDS011;53468;48.276;14.416;2023-02-11T17:28:39;31.88;;;15.80;;
66609;SDS011;53468;48.276;14.416;2023-02-11T17:33:41;32.88;;;14.50;;
66609;SDS011;53468;48.276;14.416;2023-02-11T17:38:45;34.85;;;16.58;;
66609;SDS011;53468;48.276;14.416;2023-02-11T17:43:47;33.80;;;17.73;;
66609;SDS011;53468;48.276;14.416;2023-02-11T17:48:49;36.08;;;18.45;;
66609;SDS011;53468;48.276;14.416;2023-02-11T17:53:53;34.35;;;17.58;;
66609;SDS011;53468;48.276;14.416;2023-02-11T17:58:57;35.75;;;17.77;;
66609;SDS011;53468;48.276;14.416;2023-02-11T18:04:03;32.97;;;16.92;;
66609;SDS011;53468;48.276;14.416;2023-02-11T18:09:08;32.38;;;18.50;;
66609;SDS011;53468;48.276;14.416;2023-02-11T18:14:11;38.97;;;18.25;;
66609;SDS011;53468;48.276;14.416;2023-02-11T18:19:13;31.63;;;16.88;;
66609;SDS011;53468;48.276;14.416;2023-02-11T18:24:17;31.02;;;16.92;;
66609;SDS011;53468;48.276;14.416;2023-02-11T18:29:22;35.53;;;18.08;;
66609;SDS011;53468;48.276;14.416;2023-02-11T18:34:24;34.20;;;16.20;;
66609;SDS011;53468;48.276;14.416;2023-02-11T18:39:27;37.72;;;19.55;;
66609;SDS011;53468;48.276;14.416;2023-02-11T18:44:30;32.72;;;18.60;;
66609;SDS011;53468;48.276;14.416;2023-02-11T18:49:33;37.42;;;17.92;;
66609;SDS011;53468;48.276;14.416;2023-02-11T18:54:39;33.90;;;17.15;;
66609;SDS011;53468;48.276;14.416;2023-02-11T18:59:41;31.10;;;17.38;;
66609;SDS011;53468;48.276;14.416;2023-02-11T19:04:43;32.80;;;19.17;;
66609;SDS011;53468;48.276;14.416;2023-02-11T19:09:47;34.50;;;19.50;;
66609;SDS011;53468;48.276;14.416;2023-02-11T19:14:49;36.00;;;17.52;;
66609;SDS011;53468;48.276;14.416;2023-02-11T19:19:51;36.53;;;19.40;;
66609;SDS011;53468;48.276;14.416;2023-02-11T19:24:55;35.05;;;18.60;;
66609;SDS011;53468;48.276;14.416;2023-02-11T19:29:58;33.78;;;18.80;;
66609;SDS011;53468;48.276;14.416;2023-02-11T19:35:00;34.60;;;17.63;;
66609;SDS011;53468;48.276;14.416;2023-02-11T19:40:05;34.53;;;18.10;;
66609;SDS011;53468;48.276;14.416;2023-02-11T19:45:08;34.33;;;17.65;;
66609;SDS011;53468;48.276;14.416;2023-02-11T19:50:11;29.02;;;17.80;;
66609;SDS011;53468;48.276;14.416;2023-02-11T19:55:16;35.83;;;18.80;;
66609;SDS011;53468;48.276;14.416;2023-02-11T20:00:18;32.10;;;18.05;;
66609;SDS011;53468;48.276;14.416;2023-02-11T20:05:21;31.02;;;18.23;;
66609;SDS011;53468;48.276;14.416;2023-02-11T20:10:26;36.00;;;18.13;;
66609;SDS011;53468;48.276;14.416;2023-02-11T20:15:28;32.53;;;18.20;;
66609;SDS011;53468;48.276;14.416;2023-02-11T20:20:30;35.88;;;18.23;;
66609;SDS011;53468;48.276;14.416;2023-02-11T20:25:34;36.42;;;18.08;;
66609;SDS011;53468;48.276;14.416;2023-02-11T20:30:39;39.63;;;19.45;;
66609;SDS011;53468;48.276;14.416;2023-02-11T20:35:41;37.38;;;19.42;;
66609;SDS011;53468;48.276;14.416;2023-02-11T20:40:45;36.83;;;20.27;;
66609;SDS011;53468;48.276;14.416;2023-02-11T20:45:47;43.70;;;21.08;;
66609;SDS011;53468;48.276;14.416;2023-02-11T20:50:50;41.03;;;21.48;;
66609;SDS011;53468;48.276;14.416;2023-02-11T20:55:53;36.20;;;18.70;;
66609;SDS011;53468;48.276;14.416;2023-02-11T21:00:55;33.75;;;18.52;;
66609;SDS011;53468;48.276;14.416;2023-02-11T21:05:58;40.97;;;19.30;;
66609;SDS011;53468;48.276;14.416;2023-02-11T21:11:01;32.00;;;16.65;;
66609;SDS011;53468;48.276;14.416;2023-02-11T21:16:08;29.65;;;16.58;;
66609;SDS011;53468;48.276;14.416;2023-02-11T21:21:14;35.70;;;16.73;;
66609;SDS011;53468;48.276;14.416;2023-02-11T21:26:18;33.38;;;17.85;;
66609;SDS011;53468;48.276;14.416;2023-02-11T21:31:21;31.35;;;17.67;;
66609;SDS011;53468;48.276;14.416;2023-02-11T21:36:25;34.28;;;17.65;;
66609;SDS011;53468;48.276;14.416;2023-02-11T21:41:30;31.92;;;17.08;;
66609;SDS011;53468;48.276;14.416;2023-02-11T21:46:32;33.85;;;16.35;;
66609;SDS011;53468;48.276;14.416;2023-02-11T21:51:34;42.13;;;18.92;;
66609;SDS011;53468;48.276;14.416;2023-02-11T21:56:38;33.42;;;17.85;;
66609;SDS011;53468;48.276;14.416;2023-02-11T22:01:40;33.15;;;17.58;;
66609;SDS011;53468;48.276;14.416;2023-02-11T22:06:42;30.77;;;15.73;;
66609;SDS011;53468;48.276;14.416;2023-02-11T22:11:46;23.58;;;15.05;;
66609;SDS011;53468;48.276;14.416;2023-02-11T22:16:49;27.55;;;14.32;;
66609;SDS011;53468;48.276;14.416;2023-02-11T22:21:51;26.63;;;14.93;;
66609;SDS011;53468;48.276;14.416;2023-02-11T22:26:55;32.60;;;16.63;;
66609;SDS011;53468;48.276;14.416;2023-02-11T22:31:59;31.25;;;17.42;;
66609;SDS011;53468;48.276;14.416;2023-02-11T22:37:01;28.88;;;15.70;;
66609;SDS011;53468;48.276;14.416;2023-02-11T22:42:05;28.05;;;15.57;;
66609;SDS011;53468;48.276;14.416;2023-02-11T22:47:07;30.67;;;16.25;;
66609;SDS011;53468;48.276;14.416;2023-02-11T22:52:09;31.13;;;15.68;;
66609;SDS011;53468;48.276;14.416;2023-02-11T22:57:13;30.42;;;15.18;;
66609;SDS011;53468;48.276;14.416;2023-02-11T23:02:15;35.67;;;15.63;;
66609;SDS011;53468;48.276;14.416;2023-02-11T23:07:19;37.30;;;19.42;;
66609;SDS011;53468;48.276;14.416;2023-02-11T23:12:23;30.35;;;17.65;;
66609;SDS011;53468;48.276;14.416;2023-02-11T23:17:26;32.90;;;16.30;;
66609;SDS011;53468;48.276;14.416;2023-02-11T23:22:28;35.72;;;17.48;;
66609;SDS011;53468;48.276;14.416;2023-02-11T23:27:33;37.88;;;17.60;;
66609;SDS011;53468;48.276;14.416;2023-02-11T23:32:36;40.05;;;16.60;;
66609;SDS011;53468;48.276;14.416;2023-02-11T23:37:38;33.05;;;17.45;;
66609;SDS011;53468;48.276;14.416;2023-02-11T23:42:41;33.83;;;17.67;;
66609;SDS011;53468;48.276;14.416;2023-02-11T23:47:44;35.83;;;17.10;;
66609;SDS011;53468;48.276;14.416;2023-02-11T23:52:46;34.40;;;17.23;;
66609;SDS011;53468;48.276;14.416;2023-02-11T23:57:50;36.90;;;17.50;;
